METAR de aeropuertos de Murcia y cercanos

 

LEMI - Murcia/Corvera
Actualización: 17/09/2019 14:30
Despejado
Despejado
 Viento del SSE
Viento: SSE 20 km/h
Temperatura: 26°C
Rocío: 22°C
Humedad: 79%
Barómetro: 1016 hPa
Resumen: Despejado
Visibilidad: greater than 10 km
2019/09/17 12:30 LEMI 171230Z 15011KT CAVOK 26/22 Q1016
LERI - Murcia/Alcantarilla
Actualización: 17/09/2019 14:00
Lluvia débil, Parcialmente nublado
Lluvia débil, Parcialmente nublado
 Viento del varies
Viento: varies 6 km/h
Temperatura: 25°C
Rocío: 21°C
Humedad: 79%
Barómetro: 1016 hPa
Resumen: Light Rain
Nubosidad: Partly Cloudy
Visibilidad: 10 km
Cloud details: Partly Cloudy 1067 m
2019/09/17 12:00 LERI 171200Z VRB03KT 9999 -RA SCT035 25/21 Q1016 NOSIG
LELC - Murcia/San Javier
Actualización: 17/09/2019 14:30
Partly Cloudy
Partly Cloudy
 Viento del E
Viento: E 17 km/h
Temperatura: 26°C
Rocío: 23°C
Humedad: 84%
Barómetro: 1015 hPa
Nubosidad: Partly Cloudy
Visibilidad: 9 km
2019/09/17 12:30 LELC 171230Z 09009KT 060V130 9000 NSC 26/23 Q1015 NOSIG
 
LEAL - Alicante
Actualización: 17/09/2019 14:30
Few Clouds
Few Clouds
 Viento del E
Viento: E 9 km/h
Temperatura: 26°C
Rocío: 22°C
Humedad: 79%
Barómetro: 1016 hPa
Nubosidad: Few Clouds
Visibilidad: 9 km
Cloud details: Few Clouds 732 m
2019/09/17 12:30 LEAL 171230Z 10005KT 060V200 9000 FEW024 26/22 Q1016 NOSIG
LEAB - Albacete
Actualización: 17/09/2019 14:00

 Viento del SE
Viento: SE 17 km/h
Visibilidad: 10 km
2019/09/17 12:00 LEAB 171200Z 14009KT 110V180 9999 SCT/// 27/15 Q1019 NOSIG
LEAM - Almería
Actualización: 17/09/2019 14:30
Few Clouds
Few Clouds
 Viento del ENE
Viento: ENE 15 km/h
Temperatura: 28°C
Heat Index: 29°C
Rocío: 20°C
Humedad: 62%
Barómetro: 1015 hPa
Nubosidad: Few Clouds
Visibilidad: 10 km
Cloud details: Few Clouds 1219 m
2019/09/17 12:30 LEAM 171230Z 07008KT 020V120 9999 FEW040 28/20 Q1015

La estación de MeteoMurcia.com, publica sus datos en los siguientes proyectos:

Weather Underground PWS IMURCIAP2 Meteoclimatic www.awekas.at

W3Counter
Web Analytics